Hovedside
METAR-TAF:

METAR-TAF

Lufthavner :

Cochabamba, Bolivia

breddegrad: 17-25S, lengdegrad: 066-11W, høyde over havet: 2548 m

Gjeldene værobservasjon

Denne rapporten ble laget for 35 minutter siden, klokken 00:00 UTC
Vind 4 kt fra Øst
Temperatur 18°C
Luftfuktighet 34%
Trykk 1024 hPa
Sikt 10 km eller mer

METAR: SLCB 230000Z 09004KT 9999 NSC 18/02 Q1024

Tid: 20:35 (00:35 UTC)

Varsel

Denne rapporten ble laget for 2 timer og 35 minutter siden, klokken 22:00 UTC
Varsel gyldig fra 23. klokken 00 UTC til 23. klokken 24 UTC
Vind 10 kt fra Sørøst
Sikt 10 km eller mer
Få skyer i en høyde av 3600 ft
Blir
fra 23. klokken 03 UTC til 23. klokken 05 UTC
Vind kt fra Nord
Blir
fra 23. klokken 14 UTC til 23. klokken 16 UTC
Vind 10 kt fra Vest-sørvest
Få skyer i en høyde av 3600 ft

TAF: SLCB 222200Z 2300/2324 13010KT 9999 FEW036 TX30/2319Z TN08/2311Z BECMG 2303/2305 00000KT NSC BECMG 2314/2316 25010KT FEW036

Værobservasjoner og værvarsel for over 4000 flyplasser (METAR- og TAF-rapporter).

Tilgjengelige stasjoner er representert av de røde og gule prikkene på kartet.

Hold musepekeren over prikken for å se navnet på stasjonen.

Klikk så for å se værobservasjoner og -varsler.

For å forandre kartet kan du klikke på den grønne knappen med svart kryss for å zoome inn, på den grønne knappen med strek for å zoome ut, eller på de grønne pilene for å se tilstøtende kart.


METAR-TAF: